Time,TemperatureF,DewpointF,PressureIn,WindDirection,WindDirectionDegrees,WindSpeedMPH,WindSpeedGustMPH,Humidity,HourlyPrecipIn,Conditions,Clouds,dailyrainin,SolarRadiationWatts/m^2,SoftwareType,DateUTC
2013-10-16 00:29:00,51.6,49.6,29.86,SE,132,7.0,7.0,93,0.00,,,0.00,0,Wunderground v.1.15,2013-10-15 23:29:00,
2013-10-16 01:00:00,52.1,49.8,29.85,SE,140,12.0,14.0,92,0.00,,,0.00,0,Wunderground v.1.15,2013-10-16 00:00:00,
2013-10-16 01:29:00,52.2,49.9,29.84,SE,128,10.0,12.0,92,0.00,,,0.00,0,Wunderground v.1.15,2013-10-16 00:29:00,
2013-10-16 01:59:00,52.4,49.6,29.83,SSE,149,11.0,12.0,90,0.00,,,0.00,0,Wunderground v.1.15,2013-10-16 00:59:00,
2013-10-16 02:29:00,52.5,49.4,29.82,SSE,156,11.0,13.0,89,0.00,,,0.00,0,Wunderground v.1.15,2013-10-16 01:29:00,
2013-10-16 02:59:00,52.4,49.3,29.81,South,172,11.0,11.0,89,0.00,,,0.00,0,Wunderground v.1.15,2013-10-16 01:59:00,
2013-10-16 03:29:00,52.5,49.7,29.80,SE,145,11.0,11.0,90,0.00,,,0.00,0,Wunderground v.1.15,2013-10-16 02:29:00,
2013-10-16 04:00:00,52.5,49.4,29.78,SSE,163,11.0,11.0,89,0.00,,,0.00,0,Wunderground v.1.15,2013-10-16 03:00:00,
2013-10-16 04:29:00,52.5,49.4,29.76,SE,144,12.0,20.0,89,0.00,,,0.00,0,Wunderground v.1.15,2013-10-16 03:29:00,
2013-10-16 04:59:00,52.3,49.2,29.74,SSE,161,14.0,16.0,89,0.00,,,0.00,0,Wunderground v.1.15,2013-10-16 03:59:00,
2013-10-16 05:29:00,52.3,49.2,29.72,SE,144,15.0,20.0,89,0.00,,,0.00,0,Wunderground v.1.15,2013-10-16 04:29:00,
2013-10-16 05:59:00,52.6,48.8,29.72,SSE,157,13.0,13.0,87,0.00,,,0.00,0,Wunderground v.1.15,2013-10-16 04:59:00,
2013-10-16 06:29:00,52.6,49.1,29.69,SSE,159,14.0,24.0,88,0.00,,,0.00,0,Wunderground v.1.15,2013-10-16 05:29:00,
2013-10-16 06:59:00,52.4,48.9,29.67,SE,142,11.0,15.0,88,0.00,,,0.00,0,Wunderground v.1.15,2013-10-16 05:59:00,
2013-10-16 07:29:00,52.3,48.9,29.66,ESE,119,10.0,12.0,88,0.00,,,0.00,0,Wunderground v.1.15,2013-10-16 06:29:00,
2013-10-16 07:59:00,51.5,48.7,29.66,ESE,115,11.0,11.0,90,0.05,,,0.02,0,Wunderground v.1.15,2013-10-16 06:59:00,
2013-10-16 08:29:00,50.5,48.3,29.65,SE,132,13.0,13.0,92,0.38,,,0.09,0,Wunderground v.1.15,2013-10-16 07:29:00,
2013-10-16 08:59:00,50.0,48.3,29.64,SE,127,12.0,13.0,94,0.31,,,0.23,5,Wunderground v.1.15,2013-10-16 07:59:00,
2013-10-16 09:29:00,49.8,48.4,29.63,ESE,112,10.0,10.0,95,0.43,,,0.33,7,Wunderground v.1.15,2013-10-16 08:29:00,
2013-10-16 09:59:00,49.5,48.4,29.61,ESE,117,12.0,12.0,96,0.39,,,0.44,14,Wunderground v.1.15,2013-10-16 08:59:00,
2013-10-16 10:29:00,49.2,48.1,29.59,ESE,116,10.0,10.0,96,0.26,,,0.52,11,Wunderground v.1.15,2013-10-16 09:29:00,
2013-10-16 10:59:00,49.1,48.0,29.60,ESE,123,6.0,6.0,96,0.30,,,0.60,7,Wunderground v.1.15,2013-10-16 09:59:00,
2013-10-16 11:29:00,48.7,47.6,29.58,ESE,108,11.0,11.0,96,0.36,,,0.73,9,Wunderground v.1.15,2013-10-16 10:29:00,
2013-10-16 11:59:00,48.6,47.8,29.58,East,88,1.0,1.0,97,0.21,,,0.86,11,Wunderground v.1.15,2013-10-16 10:59:00,
2013-10-16 12:29:00,48.7,47.9,29.57,East,94,7.0,7.0,97,0.18,,,0.93,21,Wunderground v.1.15,2013-10-16 11:29:00,
2013-10-16 12:59:00,48.8,48.0,29.55,East,83,6.0,6.0,97,0.04,,,0.98,47,Wunderground v.1.15,2013-10-16 11:59:00,
2013-10-16 13:29:00,49.5,48.7,29.56,NE,55,6.0,7.0,97,0.00,,,0.98,102,Wunderground v.1.15,2013-10-16 12:29:00,
2013-10-16 13:59:00,50.0,49.2,29.57,NNE,28,4.0,4.0,97,0.00,,,0.99,107,Wunderground v.1.15,2013-10-16 12:59:00,
2013-10-16 14:29:00,50.3,49.8,29.58,NW,310,4.0,5.0,98,0.00,,,0.99,39,Wunderground v.1.15,2013-10-16 13:29:00,
2013-10-16 15:00:00,50.3,49.8,29.58,North,360,6.0,6.0,98,0.00,,,0.99,67,Wunderground v.1.15,2013-10-16 14:00:00,
2013-10-16 15:29:00,50.5,50.0,29.59,NW,309,6.0,6.0,98,0.00,,,0.99,118,Wunderground v.1.15,2013-10-16 14:29:00,
2013-10-16 15:59:00,50.8,50.0,29.59,NW,308,5.0,5.0,97,0.00,,,0.99,199,Wunderground v.1.15,2013-10-16 14:59:00,
2013-10-16 16:29:00,52.3,51.2,29.59,WNW,290,4.0,5.0,96,0.00,,,0.99,162,Wunderground v.1.15,2013-10-16 15:29:00,
2013-10-16 16:59:00,51.4,50.3,29.59,WNW,288,3.0,3.0,96,0.00,,,0.99,67,Wunderground v.1.15,2013-10-16 15:59:00,
2013-10-16 17:29:00,51.5,50.4,29.60,SSE,165,3.0,3.0,96,0.00,,,0.99,25,Wunderground v.1.15,2013-10-16 16:29:00,
2013-10-16 17:59:00,51.1,50.0,29.60,SSE,167,2.0,4.0,96,0.00,,,1.00,7,Wunderground v.1.15,2013-10-16 16:59:00,
2013-10-16 18:29:00,51.1,50.0,29.61,SSE,165,4.0,4.0,96,0.00,,,1.02,0,Wunderground v.1.15,2013-10-16 17:29:00,
2013-10-16 18:59:00,51.0,49.9,29.62,SSE,166,4.0,4.0,96,0.00,,,1.02,0,Wunderground v.1.15,2013-10-16 17:59:00,
2013-10-16 19:29:00,50.3,49.5,29.62,South,178,6.0,6.0,97,0.00,,,1.02,0,Wunderground v.1.15,2013-10-16 18:29:00,
2013-10-16 19:59:00,50.7,49.6,29.63,SW,223,9.0,9.0,96,0.00,,,1.02,0,Wunderground v.1.15,2013-10-16 18:59:00,
2013-10-16 20:29:00,50.4,48.7,29.64,WSW,249,10.0,11.0,94,0.00,,,1.02,0,Wunderground v.1.15,2013-10-16 19:29:00,
2013-10-16 20:59:00,50.2,48.3,29.65,WSW,246,8.0,8.0,93,0.00,,,1.02,0,Wunderground v.1.15,2013-10-16 19:59:00,
2013-10-16 21:29:00,50.3,48.6,29.66,WSW,258,11.0,12.0,94,0.00,,,1.02,0,Wunderground v.1.15,2013-10-16 20:29:00,
2013-10-16 21:59:00,50.4,48.5,29.67,WSW,251,12.0,13.0,93,0.00,,,1.02,0,Wunderground v.1.15,2013-10-16 20:59:00,
2013-10-16 22:29:00,50.3,48.4,29.68,WSW,245,11.0,13.0,93,0.00,,,1.02,0,Wunderground v.1.15,2013-10-16 21:29:00,
2013-10-16 22:59:00,49.8,47.9,29.70,West,264,10.0,10.0,93,0.00,,,1.02,0,Wunderground v.1.15,2013-10-16 21:59:00,
2013-10-16 23:29:00,49.5,47.8,29.70,WSW,254,12.0,12.0,94,0.00,,,1.02,0,Wunderground v.1.15,2013-10-16 22:29:00,
2013-10-16 23:59:00,49.1,47.4,29.71,WSW,255,10.0,10.0,94,0.00,,,0.00,0,Wunderground v.1.15,2013-10-16 22:59:00,